sensor_id;sensor_type;location;lat;lon;timestamp;P1;durP1;ratioP1;P2;durP2;ratioP2
7503;SDS011;3793;48.136;11.536;2023-06-14T00:02:19;6.30;;;3.93;;
7503;SDS011;3793;48.136;11.536;2023-06-14T00:04:45;3.60;;;3.23;;
7503;SDS011;3793;48.136;11.536;2023-06-14T00:07:13;3.93;;;3.53;;
7503;SDS011;3793;48.136;11.536;2023-06-14T00:09:41;4.80;;;3.43;;
7503;SDS011;3793;48.136;11.536;2023-06-14T00:12:10;5.23;;;3.43;;
7503;SDS011;3793;48.136;11.536;2023-06-14T00:14:37;5.70;;;3.60;;
7503;SDS011;3793;48.136;11.536;2023-06-14T00:17:05;4.20;;;3.70;;
7503;SDS011;3793;48.136;11.536;2023-06-14T00:19:32;6.67;;;3.57;;
7503;SDS011;3793;48.136;11.536;2023-06-14T00:22:00;5.37;;;3.70;;
7503;SDS011;3793;48.136;11.536;2023-06-14T00:24:28;4.00;;;3.23;;
7503;SDS011;3793;48.136;11.536;2023-06-14T00:26:55;3.83;;;3.13;;
7503;SDS011;3793;48.136;11.536;2023-06-14T00:29:23;5.00;;;3.23;;
7503;SDS011;3793;48.136;11.536;2023-06-14T00:31:50;6.97;;;3.50;;
7503;SDS011;3793;48.136;11.536;2023-06-14T00:34:17;3.93;;;3.50;;
7503;SDS011;3793;48.136;11.536;2023-06-14T00:36:44;6.00;;;3.60;;
7503;SDS011;3793;48.136;11.536;2023-06-14T00:39:11;3.60;;;3.10;;
7503;SDS011;3793;48.136;11.536;2023-06-14T00:41:38;4.30;;;3.40;;
7503;SDS011;3793;48.136;11.536;2023-06-14T00:44:05;4.07;;;3.10;;
7503;SDS011;3793;48.136;11.536;2023-06-14T00:46:34;5.00;;;3.53;;
7503;SDS011;3793;48.136;11.536;2023-06-14T00:49:01;5.97;;;3.30;;
7503;SDS011;3793;48.136;11.536;2023-06-14T00:51:28;5.77;;;3.67;;
7503;SDS011;3793;48.136;11.536;2023-06-14T00:53:55;7.67;;;3.47;;
7503;SDS011;3793;48.136;11.536;2023-06-14T00:56:21;6.27;;;3.57;;
7503;SDS011;3793;48.136;11.536;2023-06-14T00:58:49;5.73;;;3.17;;
7503;SDS011;3793;48.136;11.536;2023-06-14T01:01:16;4.33;;;3.47;;
7503;SDS011;3793;48.136;11.536;2023-06-14T01:03:44;8.23;;;4.07;;
7503;SDS011;3793;48.136;11.536;2023-06-14T01:06:15;6.33;;;3.73;;
7503;SDS011;3793;48.136;11.536;2023-06-14T01:11:38;6.77;;;3.73;;
7503;SDS011;3793;48.136;11.536;2023-06-14T01:14:09;3.50;;;3.20;;
7503;SDS011;3793;48.136;11.536;2023-06-14T01:16:37;4.30;;;3.17;;
7503;SDS011;3793;48.136;11.536;2023-06-14T01:19:07;4.37;;;3.73;;
7503;SDS011;3793;48.136;11.536;2023-06-14T01:21:37;4.53;;;3.47;;
7503;SDS011;3793;48.136;11.536;2023-06-14T01:24:08;4.60;;;3.30;;
7503;SDS011;3793;48.136;11.536;2023-06-14T01:26:36;5.50;;;3.60;;
7503;SDS011;3793;48.136;11.536;2023-06-14T01:29:03;4.43;;;3.53;;
7503;SDS011;3793;48.136;11.536;2023-06-14T01:31:32;5.20;;;3.80;;
7503;SDS011;3793;48.136;11.536;2023-06-14T01:34:06;4.23;;;3.50;;
7503;SDS011;3793;48.136;11.536;2023-06-14T01:36:33;4.70;;;3.40;;
7503;SDS011;3793;48.136;11.536;2023-06-14T01:39:02;7.27;;;3.50;;
7503;SDS011;3793;48.136;11.536;2023-06-14T01:41:32;5.03;;;3.80;;
7503;SDS011;3793;48.136;11.536;2023-06-14T01:43:59;7.10;;;3.30;;
7503;SDS011;3793;48.136;11.536;2023-06-14T01:46:27;4.57;;;3.50;;
7503;SDS011;3793;48.136;11.536;2023-06-14T01:48:54;5.50;;;3.47;;
7503;SDS011;3793;48.136;11.536;2023-06-14T01:51:21;7.53;;;3.43;;
7503;SDS011;3793;48.136;11.536;2023-06-14T01:53:52;5.67;;;3.57;;
7503;SDS011;3793;48.136;11.536;2023-06-14T01:56:20;4.97;;;3.43;;
7503;SDS011;3793;48.136;11.536;2023-06-14T01:58:48;5.27;;;3.70;;
7503;SDS011;3793;48.136;11.536;2023-06-14T02:01:16;3.43;;;2.80;;
7503;SDS011;3793;48.136;11.536;2023-06-14T02:03:44;4.80;;;3.03;;
7503;SDS011;3793;48.136;11.536;2023-06-14T02:06:11;5.73;;;3.43;;
7503;SDS011;3793;48.136;11.536;2023-06-14T02:08:46;5.67;;;3.30;;
7503;SDS011;3793;48.136;11.536;2023-06-14T02:11:13;4.13;;;3.57;;
7503;SDS011;3793;48.136;11.536;2023-06-14T02:13:40;6.10;;;3.60;;
7503;SDS011;3793;48.136;11.536;2023-06-14T02:16:08;4.50;;;3.70;;
7503;SDS011;3793;48.136;11.536;2023-06-14T02:18:36;7.20;;;3.40;;
7503;SDS011;3793;48.136;11.536;2023-06-14T02:21:02;6.87;;;4.40;;
7503;SDS011;3793;48.136;11.536;2023-06-14T02:23:29;5.80;;;4.20;;
7503;SDS011;3793;48.136;11.536;2023-06-14T02:25:57;5.87;;;4.50;;
7503;SDS011;3793;48.136;11.536;2023-06-14T02:28:24;4.93;;;3.90;;
7503;SDS011;3793;48.136;11.536;2023-06-14T02:30:51;7.80;;;4.30;;
7503;SDS011;3793;48.136;11.536;2023-06-14T02:33:19;7.70;;;4.07;;
7503;SDS011;3793;48.136;11.536;2023-06-14T02:35:47;7.20;;;4.10;;
7503;SDS011;3793;48.136;11.536;2023-06-14T02:38:13;4.83;;;3.90;;
7503;SDS011;3793;48.136;11.536;2023-06-14T02:40:40;9.80;;;4.20;;
7503;SDS011;3793;48.136;11.536;2023-06-14T02:43:08;5.50;;;3.87;;
7503;SDS011;3793;48.136;11.536;2023-06-14T02:45:35;4.87;;;3.50;;
7503;SDS011;3793;48.136;11.536;2023-06-14T02:48:02;5.90;;;3.73;;
7503;SDS011;3793;48.136;11.536;2023-06-14T02:50:30;5.23;;;3.67;;
7503;SDS011;3793;48.136;11.536;2023-06-14T02:52:57;6.53;;;3.57;;
7503;SDS011;3793;48.136;11.536;2023-06-14T02:55:24;5.47;;;3.67;;
7503;SDS011;3793;48.136;11.536;2023-06-14T02:57:51;4.37;;;3.47;;
7503;SDS011;3793;48.136;11.536;2023-06-14T03:00:18;4.63;;;3.60;;
7503;SDS011;3793;48.136;11.536;2023-06-14T03:02:45;23.07;;;4.50;;
7503;SDS011;3793;48.136;11.536;2023-06-14T03:05:12;4.87;;;3.60;;
7503;SDS011;3793;48.136;11.536;2023-06-14T03:07:41;7.20;;;3.67;;
7503;SDS011;3793;48.136;11.536;2023-06-14T03:10:10;5.40;;;3.43;;
7503;SDS011;3793;48.136;11.536;2023-06-14T03:12:38;5.43;;;3.30;;
7503;SDS011;3793;48.136;11.536;2023-06-14T03:15:05;4.73;;;3.80;;
7503;SDS011;3793;48.136;11.536;2023-06-14T03:17:32;5.80;;;3.27;;
7503;SDS011;3793;48.136;11.536;2023-06-14T03:20:00;8.07;;;3.77;;
7503;SDS011;3793;48.136;11.536;2023-06-14T03:22:27;4.80;;;3.80;;
7503;SDS011;3793;48.136;11.536;2023-06-14T03:24:55;7.83;;;3.50;;
7503;SDS011;3793;48.136;11.536;2023-06-14T03:27:23;5.53;;;3.27;;
7503;SDS011;3793;48.136;11.536;2023-06-14T03:29:50;4.47;;;3.67;;
7503;SDS011;3793;48.136;11.536;2023-06-14T03:32:17;4.93;;;3.77;;
7503;SDS011;3793;48.136;11.536;2023-06-14T03:34:44;6.23;;;3.97;;
7503;SDS011;3793;48.136;11.536;2023-06-14T03:37:11;5.13;;;3.30;;
7503;SDS011;3793;48.136;11.536;2023-06-14T03:39:38;9.17;;;3.17;;
7503;SDS011;3793;48.136;11.536;2023-06-14T03:42:12;4.67;;;3.30;;
7503;SDS011;3793;48.136;11.536;2023-06-14T03:44:39;5.73;;;3.50;;
7503;SDS011;3793;48.136;11.536;2023-06-14T03:47:06;5.20;;;3.60;;
7503;SDS011;3793;48.136;11.536;2023-06-14T03:49:34;5.53;;;3.50;;
7503;SDS011;3793;48.136;11.536;2023-06-14T03:52:02;4.80;;;3.70;;
7503;SDS011;3793;48.136;11.536;2023-06-14T03:54:29;5.93;;;3.43;;
7503;SDS011;3793;48.136;11.536;2023-06-14T03:56:57;5.43;;;3.77;;
7503;SDS011;3793;48.136;11.536;2023-06-14T03:59:25;6.57;;;3.60;;
7503;SDS011;3793;48.136;11.536;2023-06-14T04:01:54;3.87;;;3.30;;
7503;SDS011;3793;48.136;11.536;2023-06-14T04:04:21;5.17;;;3.87;;
7503;SDS011;3793;48.136;11.536;2023-06-14T04:06:53;4.83;;;3.47;;
7503;SDS011;3793;48.136;11.536;2023-06-14T04:09:21;4.33;;;3.93;;
7503;SDS011;3793;48.136;11.536;2023-06-14T04:11:49;4.97;;;3.33;;
7503;SDS011;3793;48.136;11.536;2023-06-14T04:14:16;5.43;;;3.63;;
7503;SDS011;3793;48.136;11.536;2023-06-14T04:16:45;4.80;;;4.10;;
7503;SDS011;3793;48.136;11.536;2023-06-14T04:19:12;4.63;;;3.73;;
7503;SDS011;3793;48.136;11.536;2023-06-14T04:21:39;8.00;;;4.03;;
7503;SDS011;3793;48.136;11.536;2023-06-14T04:24:06;6.80;;;4.13;;
7503;SDS011;3793;48.136;11.536;2023-06-14T04:26:38;8.63;;;4.00;;
7503;SDS011;3793;48.136;11.536;2023-06-14T04:29:05;6.33;;;4.50;;
7503;SDS011;3793;48.136;11.536;2023-06-14T04:31:32;7.73;;;4.27;;
7503;SDS011;3793;48.136;11.536;2023-06-14T04:34:04;5.60;;;3.97;;
7503;SDS011;3793;48.136;11.536;2023-06-14T04:36:31;6.70;;;4.00;;
7503;SDS011;3793;48.136;11.536;2023-06-14T04:38:59;6.77;;;3.70;;
7503;SDS011;3793;48.136;11.536;2023-06-14T04:41:28;7.97;;;4.50;;
7503;SDS011;3793;48.136;11.536;2023-06-14T04:43:55;6.33;;;3.93;;
7503;SDS011;3793;48.136;11.536;2023-06-14T04:46:26;6.00;;;3.60;;
7503;SDS011;3793;48.136;11.536;2023-06-14T04:48:53;6.60;;;3.73;;
7503;SDS011;3793;48.136;11.536;2023-06-14T04:51:21;5.97;;;3.70;;
7503;SDS011;3793;48.136;11.536;2023-06-14T04:53:54;6.63;;;3.93;;
7503;SDS011;3793;48.136;11.536;2023-06-14T04:56:23;4.97;;;3.47;;
7503;SDS011;3793;48.136;11.536;2023-06-14T04:58:51;4.10;;;3.70;;
7503;SDS011;3793;48.136;11.536;2023-06-14T05:01:18;6.50;;;3.80;;
7503;SDS011;3793;48.136;11.536;2023-06-14T05:03:46;4.37;;;3.33;;
7503;SDS011;3793;48.136;11.536;2023-06-14T05:06:14;6.80;;;4.20;;
7503;SDS011;3793;48.136;11.536;2023-06-14T05:08:44;4.50;;;3.73;;
7503;SDS011;3793;48.136;11.536;2023-06-14T05:11:11;4.80;;;3.83;;
7503;SDS011;3793;48.136;11.536;2023-06-14T05:13:37;5.50;;;4.13;;
7503;SDS011;3793;48.136;11.536;2023-06-14T05:16:05;4.33;;;3.57;;
7503;SDS011;3793;48.136;11.536;2023-06-14T05:18:31;5.80;;;3.43;;
7503;SDS011;3793;48.136;11.536;2023-06-14T05:21:00;6.13;;;3.83;;
7503;SDS011;3793;48.136;11.536;2023-06-14T05:23:27;4.80;;;3.77;;
7503;SDS011;3793;48.136;11.536;2023-06-14T05:25:55;8.03;;;4.20;;
7503;SDS011;3793;48.136;11.536;2023-06-14T05:28:22;8.53;;;4.13;;
7503;SDS011;3793;48.136;11.536;2023-06-14T05:30:49;7.27;;;3.63;;
7503;SDS011;3793;48.136;11.536;2023-06-14T05:33:16;4.53;;;3.67;;
7503;SDS011;3793;48.136;11.536;2023-06-14T05:35:43;4.20;;;3.40;;
7503;SDS011;3793;48.136;11.536;2023-06-14T05:38:10;5.60;;;3.53;;
7503;SDS011;3793;48.136;11.536;2023-06-14T05:40:37;4.77;;;3.60;;
7503;SDS011;3793;48.136;11.536;2023-06-14T05:43:05;5.40;;;3.43;;
7503;SDS011;3793;48.136;11.536;2023-06-14T05:45:32;4.57;;;3.50;;
7503;SDS011;3793;48.136;11.536;2023-06-14T05:47:59;5.03;;;3.60;;
7503;SDS011;3793;48.136;11.536;2023-06-14T05:50:26;6.40;;;3.80;;
7503;SDS011;3793;48.136;11.536;2023-06-14T05:52:53;6.23;;;3.77;;
7503;SDS011;3793;48.136;11.536;2023-06-14T05:55:19;8.30;;;3.97;;
7503;SDS011;3793;48.136;11.536;2023-06-14T05:57:46;7.70;;;3.40;;
7503;SDS011;3793;48.136;11.536;2023-06-14T06:00:16;7.23;;;4.10;;
7503;SDS011;3793;48.136;11.536;2023-06-14T06:02:44;6.23;;;3.83;;
7503;SDS011;3793;48.136;11.536;2023-06-14T06:05:12;7.17;;;3.90;;
7503;SDS011;3793;48.136;11.536;2023-06-14T06:07:40;4.67;;;3.60;;
7503;SDS011;3793;48.136;11.536;2023-06-14T06:10:09;8.90;;;4.20;;
7503;SDS011;3793;48.136;11.536;2023-06-14T06:12:36;4.47;;;3.40;;
7503;SDS011;3793;48.136;11.536;2023-06-14T06:15:03;4.33;;;3.13;;
7503;SDS011;3793;48.136;11.536;2023-06-14T06:17:33;5.17;;;3.60;;
7503;SDS011;3793;48.136;11.536;2023-06-14T06:20:00;5.27;;;3.43;;
7503;SDS011;3793;48.136;11.536;2023-06-14T06:22:27;6.07;;;3.73;;
7503;SDS011;3793;48.136;11.536;2023-06-14T06:24:54;6.27;;;3.30;;
7503;SDS011;3793;48.136;11.536;2023-06-14T06:27:21;4.13;;;3.40;;
7503;SDS011;3793;48.136;11.536;2023-06-14T06:29:47;4.67;;;3.37;;
7503;SDS011;3793;48.136;11.536;2023-06-14T06:32:14;3.17;;;2.87;;
7503;SDS011;3793;48.136;11.536;2023-06-14T06:34:43;4.43;;;3.30;;
7503;SDS011;3793;48.136;11.536;2023-06-14T06:37:10;6.40;;;3.10;;
7503;SDS011;3793;48.136;11.536;2023-06-14T06:39:37;4.03;;;3.28;;
7503;SDS011;3793;48.136;11.536;2023-06-14T06:42:04;6.07;;;3.25;;
7503;SDS011;3793;48.136;11.536;2023-06-14T06:44:31;6.53;;;3.47;;
7503;SDS011;3793;48.136;11.536;2023-06-14T06:46:58;4.57;;;3.15;;
7503;SDS011;3793;48.136;11.536;2023-06-14T06:49:25;4.68;;;3.08;;
7503;SDS011;3793;48.136;11.536;2023-06-14T06:52:00;7.63;;;2.97;;
7503;SDS011;3793;48.136;11.536;2023-06-14T06:54:28;10.20;;;3.70;;
7503;SDS011;3793;48.136;11.536;2023-06-14T06:56:55;6.00;;;3.70;;
7503;SDS011;3793;48.136;11.536;2023-06-14T06:59:22;11.70;;;4.03;;
7503;SDS011;3793;48.136;11.536;2023-06-14T07:01:49;7.40;;;3.55;;
7503;SDS011;3793;48.136;11.536;2023-06-14T07:04:16;3.72;;;3.00;;
7503;SDS011;3793;48.136;11.536;2023-06-14T07:06:43;5.97;;;3.22;;
7503;SDS011;3793;48.136;11.536;2023-06-14T07:09:14;7.30;;;3.03;;
7503;SDS011;3793;48.136;11.536;2023-06-14T07:11:41;5.85;;;4.00;;
7503;SDS011;3793;48.136;11.536;2023-06-14T07:14:08;6.10;;;3.63;;
7503;SDS011;3793;48.136;11.536;2023-06-14T07:16:36;8.98;;;3.92;;
7503;SDS011;3793;48.136;11.536;2023-06-14T07:19:03;8.52;;;3.13;;
7503;SDS011;3793;48.136;11.536;2023-06-14T07:21:30;4.68;;;3.45;;
7503;SDS011;3793;48.136;11.536;2023-06-14T07:23:57;5.28;;;3.10;;
7503;SDS011;3793;48.136;11.536;2023-06-14T07:26:25;10.65;;;3.80;;
7503;SDS011;3793;48.136;11.536;2023-06-14T07:28:52;4.47;;;3.20;;
7503;SDS011;3793;48.136;11.536;2023-06-14T07:31:19;4.25;;;3.25;;
7503;SDS011;3793;48.136;11.536;2023-06-14T07:33:46;8.45;;;3.38;;
7503;SDS011;3793;48.136;11.536;2023-06-14T07:36:13;6.85;;;3.20;;
7503;SDS011;3793;48.136;11.536;2023-06-14T07:38:39;5.10;;;3.22;;
7503;SDS011;3793;48.136;11.536;2023-06-14T07:41:06;5.13;;;3.58;;
7503;SDS011;3793;48.136;11.536;2023-06-14T07:43:35;8.65;;;3.45;;
7503;SDS011;3793;48.136;11.536;2023-06-14T07:46:02;6.10;;;2.95;;
7503;SDS011;3793;48.136;11.536;2023-06-14T07:48:29;6.22;;;3.28;;
7503;SDS011;3793;48.136;11.536;2023-06-14T07:50:55;8.20;;;3.35;;
7503;SDS011;3793;48.136;11.536;2023-06-14T07:53:24;4.90;;;3.10;;
7503;SDS011;3793;48.136;11.536;2023-06-14T07:55:51;7.05;;;3.00;;
7503;SDS011;3793;48.136;11.536;2023-06-14T07:58:18;5.50;;;3.05;;
7503;SDS011;3793;48.136;11.536;2023-06-14T08:00:46;4.22;;;2.95;;
7503;SDS011;3793;48.136;11.536;2023-06-14T08:03:13;7.72;;;3.20;;
7503;SDS011;3793;48.136;11.536;2023-06-14T08:05:40;7.35;;;3.10;;
7503;SDS011;3793;48.136;11.536;2023-06-14T08:10:34;4.82;;;3.05;;
7503;SDS011;3793;48.136;11.536;2023-06-14T08:13:01;6.53;;;2.97;;
7503;SDS011;3793;48.136;11.536;2023-06-14T08:15:28;5.70;;;3.20;;
7503;SDS011;3793;48.136;11.536;2023-06-14T08:17:56;4.13;;;2.95;;
7503;SDS011;3793;48.136;11.536;2023-06-14T08:20:24;4.57;;;2.75;;
7503;SDS011;3793;48.136;11.536;2023-06-14T08:22:51;5.15;;;2.55;;
7503;SDS011;3793;48.136;11.536;2023-06-14T08:25:20;6.13;;;2.88;;
7503;SDS011;3793;48.136;11.536;2023-06-14T08:27:47;7.25;;;3.17;;
7503;SDS011;3793;48.136;11.536;2023-06-14T08:30:16;4.90;;;2.85;;
7503;SDS011;3793;48.136;11.536;2023-06-14T08:32:43;8.07;;;3.20;;
7503;SDS011;3793;48.136;11.536;2023-06-14T08:35:14;3.72;;;2.50;;
7503;SDS011;3793;48.136;11.536;2023-06-14T08:37:43;5.93;;;2.78;;
7503;SDS011;3793;48.136;11.536;2023-06-14T08:40:14;6.72;;;3.00;;
7503;SDS011;3793;48.136;11.536;2023-06-14T08:42:45;5.07;;;2.95;;
7503;SDS011;3793;48.136;11.536;2023-06-14T08:45:14;4.47;;;3.10;;
7503;SDS011;3793;48.136;11.536;2023-06-14T08:47:41;6.07;;;2.97;;
7503;SDS011;3793;48.136;11.536;2023-06-14T08:50:09;4.07;;;2.78;;
7503;SDS011;3793;48.136;11.536;2023-06-14T08:52:38;4.22;;;2.58;;
7503;SDS011;3793;48.136;11.536;2023-06-14T08:55:10;5.10;;;2.75;;
7503;SDS011;3793;48.136;11.536;2023-06-14T08:57:38;5.88;;;3.30;;
7503;SDS011;3793;48.136;11.536;2023-06-14T09:00:07;5.18;;;3.00;;
7503;SDS011;3793;48.136;11.536;2023-06-14T09:02:37;7.07;;;2.70;;
7503;SDS011;3793;48.136;11.536;2023-06-14T09:05:08;8.02;;;2.35;;
7503;SDS011;3793;48.136;11.536;2023-06-14T09:07:39;4.55;;;2.55;;
7503;SDS011;3793;48.136;11.536;2023-06-14T09:10:07;4.47;;;2.67;;
7503;SDS011;3793;48.136;11.536;2023-06-14T09:12:36;4.60;;;2.30;;
7503;SDS011;3793;48.136;11.536;2023-06-14T09:15:03;2.95;;;2.42;;
7503;SDS011;3793;48.136;11.536;2023-06-14T09:17:33;4.20;;;2.90;;
7503;SDS011;3793;48.136;11.536;2023-06-14T09:20:01;5.45;;;3.05;;
7503;SDS011;3793;48.136;11.536;2023-06-14T09:22:31;3.47;;;3.00;;
7503;SDS011;3793;48.136;11.536;2023-06-14T09:25:03;5.22;;;3.33;;
7503;SDS011;3793;48.136;11.536;2023-06-14T09:27:30;3.88;;;2.88;;
7503;SDS011;3793;48.136;11.536;2023-06-14T09:29:57;4.30;;;2.83;;
7503;SDS011;3793;48.136;11.536;2023-06-14T09:32:24;6.55;;;3.25;;
7503;SDS011;3793;48.136;11.536;2023-06-14T09:34:51;3.92;;;2.70;;
7503;SDS011;3793;48.136;11.536;2023-06-14T09:37:28;8.10;;;2.90;;
7503;SDS011;3793;48.136;11.536;2023-06-14T09:39:55;5.43;;;2.92;;
7503;SDS011;3793;48.136;11.536;2023-06-14T09:42:24;7.80;;;2.95;;
7503;SDS011;3793;48.136;11.536;2023-06-14T09:44:53;4.20;;;2.80;;
7503;SDS011;3793;48.136;11.536;2023-06-14T09:47:23;5.93;;;2.70;;
7503;SDS011;3793;48.136;11.536;2023-06-14T09:49:51;4.15;;;2.72;;
7503;SDS011;3793;48.136;11.536;2023-06-14T09:52:20;5.32;;;2.95;;
7503;SDS011;3793;48.136;11.536;2023-06-14T09:54:49;4.50;;;3.28;;
7503;SDS011;3793;48.136;11.536;2023-06-14T09:57:16;4.32;;;3.47;;
7503;SDS011;3793;48.136;11.536;2023-06-14T09:59:48;7.07;;;3.15;;
7503;SDS011;3793;48.136;11.536;2023-06-14T10:02:18;3.22;;;2.72;;
7503;SDS011;3793;48.136;11.536;2023-06-14T10:04:50;3.67;;;2.97;;
7503;SDS011;3793;48.136;11.536;2023-06-14T10:07:23;4.95;;;3.10;;
7503;SDS011;3793;48.136;11.536;2023-06-14T10:09:55;5.18;;;3.08;;
7503;SDS011;3793;48.136;11.536;2023-06-14T10:12:22;4.80;;;3.25;;
7503;SDS011;3793;48.136;11.536;2023-06-14T10:14:51;7.55;;;3.08;;
7503;SDS011;3793;48.136;11.536;2023-06-14T10:17:20;4.97;;;2.72;;
7503;SDS011;3793;48.136;11.536;2023-06-14T10:19:54;11.10;;;3.58;;
7503;SDS011;3793;48.136;11.536;2023-06-14T10:22:23;5.15;;;3.42;;
7503;SDS011;3793;48.136;11.536;2023-06-14T10:24:56;4.47;;;3.28;;
7503;SDS011;3793;48.136;11.536;2023-06-14T10:27:23;3.92;;;3.22;;
7503;SDS011;3793;48.136;11.536;2023-06-14T10:30:03;6.85;;;3.20;;
7503;SDS011;3793;48.136;11.536;2023-06-14T10:32:31;6.50;;;3.03;;
7503;SDS011;3793;48.136;11.536;2023-06-14T10:34:59;6.05;;;3.03;;
7503;SDS011;3793;48.136;11.536;2023-06-14T10:37:28;3.92;;;3.05;;
7503;SDS011;3793;48.136;11.536;2023-06-14T10:40:01;4.90;;;3.60;;
7503;SDS011;3793;48.136;11.536;2023-06-14T10:42:31;3.80;;;3.38;;
7503;SDS011;3793;48.136;11.536;2023-06-14T10:44:59;3.90;;;3.50;;
7503;SDS011;3793;48.136;11.536;2023-06-14T10:47:28;3.35;;;2.95;;
7503;SDS011;3793;48.136;11.536;2023-06-14T10:49:57;4.95;;;3.17;;
7503;SDS011;3793;48.136;11.536;2023-06-14T10:52:32;5.40;;;3.42;;
7503;SDS011;3793;48.136;11.536;2023-06-14T10:55:01;7.82;;;3.47;;
7503;SDS011;3793;48.136;11.536;2023-06-14T10:57:34;6.75;;;3.45;;
7503;SDS011;3793;48.136;11.536;2023-06-14T11:00:02;4.70;;;3.58;;
7503;SDS011;3793;48.136;11.536;2023-06-14T11:02:52;8.52;;;3.25;;
7503;SDS011;3793;48.136;11.536;2023-06-14T11:05:52;4.25;;;3.30;;
7503;SDS011;3793;48.136;11.536;2023-06-14T11:08:26;4.43;;;3.42;;
7503;SDS011;3793;48.136;11.536;2023-06-14T11:10:54;3.83;;;3.15;;
7503;SDS011;3793;48.136;11.536;2023-06-14T11:13:24;5.70;;;3.35;;
7503;SDS011;3793;48.136;11.536;2023-06-14T11:15:52;7.35;;;3.80;;
7503;SDS011;3793;48.136;11.536;2023-06-14T11:18:23;7.20;;;3.60;;
7503;SDS011;3793;48.136;11.536;2023-06-14T11:20:52;6.20;;;3.65;;
7503;SDS011;3793;48.136;11.536;2023-06-14T11:23:20;7.25;;;3.33;;
7503;SDS011;3793;48.136;11.536;2023-06-14T11:25:49;3.60;;;2.92;;
7503;SDS011;3793;48.136;11.536;2023-06-14T11:28:16;7.65;;;2.92;;
7503;SDS011;3793;48.136;11.536;2023-06-14T11:30:44;3.30;;;2.97;;
7503;SDS011;3793;48.136;11.536;2023-06-14T11:33:15;5.63;;;3.15;;
7503;SDS011;3793;48.136;11.536;2023-06-14T11:35:47;6.65;;;3.40;;
7503;SDS011;3793;48.136;11.536;2023-06-14T11:38:14;7.15;;;3.35;;
7503;SDS011;3793;48.136;11.536;2023-06-14T11:40:41;4.68;;;3.20;;
7503;SDS011;3793;48.136;11.536;2023-06-14T11:43:08;3.72;;;3.10;;
7503;SDS011;3793;48.136;11.536;2023-06-14T11:45:37;4.63;;;3.20;;
7503;SDS011;3793;48.136;11.536;2023-06-14T11:48:04;4.60;;;2.95;;
7503;SDS011;3793;48.136;11.536;2023-06-14T11:50:32;3.72;;;3.20;;
7503;SDS011;3793;48.136;11.536;2023-06-14T11:53:06;6.63;;;3.30;;
7503;SDS011;3793;48.136;11.536;2023-06-14T11:55:36;5.70;;;3.10;;
7503;SDS011;3793;48.136;11.536;2023-06-14T11:58:03;6.25;;;3.03;;
7503;SDS011;3793;48.136;11.536;2023-06-14T12:00:30;4.45;;;3.22;;
7503;SDS011;3793;48.136;11.536;2023-06-14T12:02:57;4.80;;;2.92;;
7503;SDS011;3793;48.136;11.536;2023-06-14T12:05:25;4.53;;;3.00;;
7503;SDS011;3793;48.136;11.536;2023-06-14T12:07:57;5.43;;;3.10;;
7503;SDS011;3793;48.136;11.536;2023-06-14T12:10:26;2.80;;;2.42;;
7503;SDS011;3793;48.136;11.536;2023-06-14T12:12:56;6.95;;;2.83;;
7503;SDS011;3793;48.136;11.536;2023-06-14T12:15:23;4.63;;;2.88;;
7503;SDS011;3793;48.136;11.536;2023-06-14T12:17:50;5.55;;;3.13;;
7503;SDS011;3793;48.136;11.536;2023-06-14T12:20:19;4.40;;;3.00;;
7503;SDS011;3793;48.136;11.536;2023-06-14T12:22:50;5.57;;;3.15;;
7503;SDS011;3793;48.136;11.536;2023-06-14T12:25:27;4.35;;;3.20;;
7503;SDS011;3793;48.136;11.536;2023-06-14T12:27:56;3.50;;;3.20;;
7503;SDS011;3793;48.136;11.536;2023-06-14T12:30:23;5.65;;;2.83;;
7503;SDS011;3793;48.136;11.536;2023-06-14T12:32:50;3.95;;;3.05;;
7503;SDS011;3793;48.136;11.536;2023-06-14T12:35:17;4.07;;;2.58;;
7503;SDS011;3793;48.136;11.536;2023-06-14T12:37:45;4.78;;;3.20;;
7503;SDS011;3793;48.136;11.536;2023-06-14T12:40:13;5.57;;;3.40;;
7503;SDS011;3793;48.136;11.536;2023-06-14T12:42:41;7.20;;;3.45;;
7503;SDS011;3793;48.136;11.536;2023-06-14T12:45:09;6.97;;;3.10;;
7503;SDS011;3793;48.136;11.536;2023-06-14T12:47:36;3.70;;;2.75;;
7503;SDS011;3793;48.136;11.536;2023-06-14T12:50:07;4.60;;;3.10;;
7503;SDS011;3793;48.136;11.536;2023-06-14T12:52:34;4.13;;;2.97;;
7503;SDS011;3793;48.136;11.536;2023-06-14T12:55:01;4.40;;;3.00;;
7503;SDS011;3793;48.136;11.536;2023-06-14T12:57:31;6.15;;;3.03;;
7503;SDS011;3793;48.136;11.536;2023-06-14T13:00:07;6.68;;;3.17;;
7503;SDS011;3793;48.136;11.536;2023-06-14T13:02:36;5.22;;;2.80;;
7503;SDS011;3793;48.136;11.536;2023-06-14T13:05:05;5.53;;;3.33;;
7503;SDS011;3793;48.136;11.536;2023-06-14T13:07:33;4.53;;;3.08;;
7503;SDS011;3793;48.136;11.536;2023-06-14T13:10:00;5.80;;;3.30;;
7503;SDS011;3793;48.136;11.536;2023-06-14T13:12:30;4.55;;;3.17;;
7503;SDS011;3793;48.136;11.536;2023-06-14T13:14:57;4.28;;;3.42;;
7503;SDS011;3793;48.136;11.536;2023-06-14T13:17:29;4.57;;;3.00;;
7503;SDS011;3793;48.136;11.536;2023-06-14T13:20:01;5.95;;;4.05;;
7503;SDS011;3793;48.136;11.536;2023-06-14T13:22:32;6.40;;;3.03;;
7503;SDS011;3793;48.136;11.536;2023-06-14T13:24:59;6.95;;;3.30;;
7503;SDS011;3793;48.136;11.536;2023-06-14T13:27:27;3.03;;;2.72;;
7503;SDS011;3793;48.136;11.536;2023-06-14T13:30:02;6.97;;;3.72;;
7503;SDS011;3793;48.136;11.536;2023-06-14T13:32:33;4.13;;;2.85;;
7503;SDS011;3793;48.136;11.536;2023-06-14T13:35:03;4.30;;;3.22;;
7503;SDS011;3793;48.136;11.536;2023-06-14T13:37:31;4.90;;;2.95;;
7503;SDS011;3793;48.136;11.536;2023-06-14T13:39:58;7.65;;;3.00;;
7503;SDS011;3793;48.136;11.536;2023-06-14T13:42:25;10.52;;;3.17;;
7503;SDS011;3793;48.136;11.536;2023-06-14T13:44:52;3.60;;;3.22;;
7503;SDS011;3793;48.136;11.536;2023-06-14T13:47:19;5.00;;;3.58;;
7503;SDS011;3793;48.136;11.536;2023-06-14T13:49:47;4.68;;;2.97;;
7503;SDS011;3793;48.136;11.536;2023-06-14T13:52:14;8.00;;;3.38;;
7503;SDS011;3793;48.136;11.536;2023-06-14T13:54:41;6.90;;;3.30;;
7503;SDS011;3793;48.136;11.536;2023-06-14T13:57:08;4.95;;;2.60;;
7503;SDS011;3793;48.136;11.536;2023-06-14T13:59:37;4.05;;;2.70;;
7503;SDS011;3793;48.136;11.536;2023-06-14T14:02:04;3.45;;;3.15;;
7503;SDS011;3793;48.136;11.536;2023-06-14T14:04:32;3.75;;;3.42;;
7503;SDS011;3793;48.136;11.536;2023-06-14T14:07:01;5.43;;;3.03;;
7503;SDS011;3793;48.136;11.536;2023-06-14T14:09:28;3.42;;;3.13;;
7503;SDS011;3793;48.136;11.536;2023-06-14T14:11:55;5.28;;;3.10;;
7503;SDS011;3793;48.136;11.536;2023-06-14T14:14:22;8.05;;;3.08;;
7503;SDS011;3793;48.136;11.536;2023-06-14T14:16:49;5.00;;;2.90;;
7503;SDS011;3793;48.136;11.536;2023-06-14T14:19:18;4.93;;;3.08;;
7503;SDS011;3793;48.136;11.536;2023-06-14T14:21:45;5.72;;;3.15;;
7503;SDS011;3793;48.136;11.536;2023-06-14T14:24:13;5.22;;;3.35;;
7503;SDS011;3793;48.136;11.536;2023-06-14T14:26:41;3.58;;;2.78;;
7503;SDS011;3793;48.136;11.536;2023-06-14T14:29:07;7.25;;;3.28;;
7503;SDS011;3793;48.136;11.536;2023-06-14T14:31:36;5.78;;;2.83;;
7503;SDS011;3793;48.136;11.536;2023-06-14T14:34:05;3.97;;;2.75;;
7503;SDS011;3793;48.136;11.536;2023-06-14T14:36:35;4.55;;;2.55;;
7503;SDS011;3793;48.136;11.536;2023-06-14T14:39:03;5.55;;;3.25;;
7503;SDS011;3793;48.136;11.536;2023-06-14T14:41:31;3.65;;;2.95;;
7503;SDS011;3793;48.136;11.536;2023-06-14T14:43:58;5.65;;;3.03;;
7503;SDS011;3793;48.136;11.536;2023-06-14T14:46:25;3.25;;;2.55;;
7503;SDS011;3793;48.136;11.536;2023-06-14T14:48:53;3.03;;;2.67;;
7503;SDS011;3793;48.136;11.536;2023-06-14T14:51:20;4.32;;;2.95;;
7503;SDS011;3793;48.136;11.536;2023-06-14T14:53:47;3.85;;;3.05;;
7503;SDS011;3793;48.136;11.536;2023-06-14T14:56:14;2.85;;;2.60;;
7503;SDS011;3793;48.136;11.536;2023-06-14T14:58:43;4.82;;;3.60;;
7503;SDS011;3793;48.136;11.536;2023-06-14T15:01:10;4.65;;;3.13;;
7503;SDS011;3793;48.136;11.536;2023-06-14T15:03:37;4.85;;;3.10;;
7503;SDS011;3793;48.136;11.536;2023-06-14T15:06:04;7.38;;;3.03;;
7503;SDS011;3793;48.136;11.536;2023-06-14T15:08:31;7.82;;;2.75;;
7503;SDS011;3793;48.136;11.536;2023-06-14T15:10:58;6.15;;;3.13;;
7503;SDS011;3793;48.136;11.536;2023-06-14T15:13:25;4.07;;;2.92;;